sensor_id;sensor_type;location;lat;lon;timestamp;P1;durP1;ratioP1;P2;durP2;ratioP2
53961;SDS011;39868;53.398;6.564;2022-07-03T00:00:49;6.15;;;4.57;;
53961;SDS011;39868;53.398;6.564;2022-07-03T00:03:16;4.50;;;4.10;;
53961;SDS011;39868;53.398;6.564;2022-07-03T00:05:44;4.80;;;4.40;;
53961;SDS011;39868;53.398;6.564;2022-07-03T00:08:11;4.88;;;4.38;;
53961;SDS011;39868;53.398;6.564;2022-07-03T00:10:39;4.70;;;4.30;;
53961;SDS011;39868;53.398;6.564;2022-07-03T00:13:06;4.45;;;3.88;;
53961;SDS011;39868;53.398;6.564;2022-07-03T00:15:34;6.38;;;4.75;;
53961;SDS011;39868;53.398;6.564;2022-07-03T00:18:01;5.20;;;4.38;;
53961;SDS011;39868;53.398;6.564;2022-07-03T00:20:29;5.00;;;4.63;;
53961;SDS011;39868;53.398;6.564;2022-07-03T00:23:02;5.35;;;4.30;;
53961;SDS011;39868;53.398;6.564;2022-07-03T00:25:34;4.47;;;4.00;;
53961;SDS011;39868;53.398;6.564;2022-07-03T00:28:04;5.03;;;4.63;;
53961;SDS011;39868;53.398;6.564;2022-07-03T00:30:33;4.40;;;4.10;;
53961;SDS011;39868;53.398;6.564;2022-07-03T00:33:01;4.63;;;4.22;;
53961;SDS011;39868;53.398;6.564;2022-07-03T00:35:36;4.55;;;4.15;;
53961;SDS011;39868;53.398;6.564;2022-07-03T00:38:05;5.38;;;4.20;;
53961;SDS011;39868;53.398;6.564;2022-07-03T00:40:32;4.50;;;4.10;;
53961;SDS011;39868;53.398;6.564;2022-07-03T00:43:00;4.43;;;4.03;;
53961;SDS011;39868;53.398;6.564;2022-07-03T00:45:33;4.53;;;4.13;;
53961;SDS011;39868;53.398;6.564;2022-07-03T00:48:01;4.87;;;3.80;;
53961;SDS011;39868;53.398;6.564;2022-07-03T00:50:35;4.35;;;4.05;;
53961;SDS011;39868;53.398;6.564;2022-07-03T00:53:02;4.10;;;3.80;;
53961;SDS011;39868;53.398;6.564;2022-07-03T00:55:30;4.25;;;3.90;;
53961;SDS011;39868;53.398;6.564;2022-07-03T00:58:01;5.20;;;3.88;;
53961;SDS011;39868;53.398;6.564;2022-07-03T01:00:28;5.63;;;4.00;;
53961;SDS011;39868;53.398;6.564;2022-07-03T01:03:00;4.05;;;3.72;;
53961;SDS011;39868;53.398;6.564;2022-07-03T01:05:37;4.30;;;4.00;;
53961;SDS011;39868;53.398;6.564;2022-07-03T01:16:21;4.78;;;4.22;;
53961;SDS011;39868;53.398;6.564;2022-07-03T01:32:44;4.85;;;4.45;;
53961;SDS011;39868;53.398;6.564;2022-07-03T01:35:15;4.57;;;4.28;;
53961;SDS011;39868;53.398;6.564;2022-07-03T01:37:54;5.60;;;4.20;;
53961;SDS011;39868;53.398;6.564;2022-07-03T01:40:22;4.47;;;4.07;;
53961;SDS011;39868;53.398;6.564;2022-07-03T01:42:53;4.47;;;4.17;;
53961;SDS011;39868;53.398;6.564;2022-07-03T01:45:21;4.88;;;4.47;;
53961;SDS011;39868;53.398;6.564;2022-07-03T01:47:53;4.65;;;4.25;;
53961;SDS011;39868;53.398;6.564;2022-07-03T01:50:21;5.07;;;4.60;;
53961;SDS011;39868;53.398;6.564;2022-07-03T01:52:50;6.18;;;4.90;;
53961;SDS011;39868;53.398;6.564;2022-07-03T01:55:19;5.13;;;4.57;;
53961;SDS011;39868;53.398;6.564;2022-07-03T01:57:48;4.97;;;4.47;;
53961;SDS011;39868;53.398;6.564;2022-07-03T02:00:18;5.25;;;4.75;;
53961;SDS011;39868;53.398;6.564;2022-07-03T02:02:54;5.95;;;5.38;;
53961;SDS011;39868;53.398;6.564;2022-07-03T02:05:32;6.75;;;5.00;;
53961;SDS011;39868;53.398;6.564;2022-07-03T02:10:34;5.65;;;5.05;;
53961;SDS011;39868;53.398;6.564;2022-07-03T02:13:13;5.20;;;4.65;;
53961;SDS011;39868;53.398;6.564;2022-07-03T02:15:43;5.53;;;5.03;;
53961;SDS011;39868;53.398;6.564;2022-07-03T02:21:03;5.40;;;4.90;;
53961;SDS011;39868;53.398;6.564;2022-07-03T02:23:39;5.53;;;5.05;;
53961;SDS011;39868;53.398;6.564;2022-07-03T02:26:31;6.88;;;4.95;;
53961;SDS011;39868;53.398;6.564;2022-07-03T02:29:01;5.25;;;4.85;;
53961;SDS011;39868;53.398;6.564;2022-07-03T02:31:46;5.65;;;5.00;;
53961;SDS011;39868;53.398;6.564;2022-07-03T02:34:22;5.68;;;5.05;;
53961;SDS011;39868;53.398;6.564;2022-07-03T02:36:52;5.47;;;4.97;;
53961;SDS011;39868;53.398;6.564;2022-07-03T02:40:06;5.22;;;4.50;;
53961;SDS011;39868;53.398;6.564;2022-07-03T02:45:12;4.47;;;4.07;;
53961;SDS011;39868;53.398;6.564;2022-07-03T02:50:20;5.13;;;4.70;;
53961;SDS011;39868;53.398;6.564;2022-07-03T02:52:57;5.05;;;4.65;;
53961;SDS011;39868;53.398;6.564;2022-07-03T03:03:31;5.80;;;5.20;;
53961;SDS011;39868;53.398;6.564;2022-07-03T03:06:32;5.13;;;4.72;;
53961;SDS011;39868;53.398;6.564;2022-07-03T03:08:58;5.50;;;4.88;;
53961;SDS011;39868;53.398;6.564;2022-07-03T03:11:46;4.75;;;4.43;;
53961;SDS011;39868;53.398;6.564;2022-07-03T03:14:18;6.68;;;4.68;;
53961;SDS011;39868;53.398;6.564;2022-07-03T03:16:50;5.18;;;4.68;;
53961;SDS011;39868;53.398;6.564;2022-07-03T03:19:22;5.90;;;4.70;;
53961;SDS011;39868;53.398;6.564;2022-07-03T03:21:57;5.43;;;4.93;;
53961;SDS011;39868;53.398;6.564;2022-07-03T03:24:28;5.88;;;4.95;;
53961;SDS011;39868;53.398;6.564;2022-07-03T03:26:57;5.45;;;4.38;;
53961;SDS011;39868;53.398;6.564;2022-07-03T03:29:25;4.63;;;4.22;;
53961;SDS011;39868;53.398;6.564;2022-07-03T03:31:53;4.80;;;4.40;;
53961;SDS011;39868;53.398;6.564;2022-07-03T03:34:28;5.40;;;4.85;;
53961;SDS011;39868;53.398;6.564;2022-07-03T03:36:58;6.15;;;4.90;;
53961;SDS011;39868;53.398;6.564;2022-07-03T03:39:26;4.95;;;4.55;;
53961;SDS011;39868;53.398;6.564;2022-07-03T03:41:54;6.72;;;5.43;;
53961;SDS011;39868;53.398;6.564;2022-07-03T03:44:22;4.68;;;4.28;;
53961;SDS011;39868;53.398;6.564;2022-07-03T03:46:50;5.25;;;4.75;;
53961;SDS011;39868;53.398;6.564;2022-07-03T03:49:17;4.72;;;4.30;;
53961;SDS011;39868;53.398;6.564;2022-07-03T03:51:45;4.40;;;4.10;;
53961;SDS011;39868;53.398;6.564;2022-07-03T03:54:12;5.13;;;4.63;;
53961;SDS011;39868;53.398;6.564;2022-07-03T03:56:40;5.28;;;4.47;;
53961;SDS011;39868;53.398;6.564;2022-07-03T03:59:07;6.35;;;4.78;;
53961;SDS011;39868;53.398;6.564;2022-07-03T04:01:35;4.65;;;4.32;;
53961;SDS011;39868;53.398;6.564;2022-07-03T04:04:02;5.13;;;4.53;;
53961;SDS011;39868;53.398;6.564;2022-07-03T04:06:30;4.82;;;4.43;;
53961;SDS011;39868;53.398;6.564;2022-07-03T04:08:57;4.97;;;4.57;;
53961;SDS011;39868;53.398;6.564;2022-07-03T04:11:25;5.28;;;4.88;;
53961;SDS011;39868;53.398;6.564;2022-07-03T04:13:52;6.85;;;5.45;;
53961;SDS011;39868;53.398;6.564;2022-07-03T04:16:19;6.35;;;5.15;;
53961;SDS011;39868;53.398;6.564;2022-07-03T04:18:47;5.38;;;4.97;;
53961;SDS011;39868;53.398;6.564;2022-07-03T04:21:14;7.07;;;5.05;;
53961;SDS011;39868;53.398;6.564;2022-07-03T04:23:41;6.40;;;5.50;;
53961;SDS011;39868;53.398;6.564;2022-07-03T04:26:09;5.65;;;5.15;;
53961;SDS011;39868;53.398;6.564;2022-07-03T04:31:09;5.03;;;4.63;;
53961;SDS011;39868;53.398;6.564;2022-07-03T04:33:37;4.93;;;4.32;;
53961;SDS011;39868;53.398;6.564;2022-07-03T04:36:07;5.35;;;4.60;;
53961;SDS011;39868;53.398;6.564;2022-07-03T04:38:34;5.55;;;5.03;;
53961;SDS011;39868;53.398;6.564;2022-07-03T04:41:01;6.28;;;4.60;;
53961;SDS011;39868;53.398;6.564;2022-07-03T04:43:29;5.22;;;4.68;;
53961;SDS011;39868;53.398;6.564;2022-07-03T04:45:56;5.35;;;4.85;;
53961;SDS011;39868;53.398;6.564;2022-07-03T04:48:23;5.25;;;4.60;;
53961;SDS011;39868;53.398;6.564;2022-07-03T04:50:51;5.20;;;4.70;;
53961;SDS011;39868;53.398;6.564;2022-07-03T04:53:21;5.25;;;4.75;;
53961;SDS011;39868;53.398;6.564;2022-07-03T04:55:49;5.47;;;4.75;;
53961;SDS011;39868;53.398;6.564;2022-07-03T04:58:19;5.68;;;5.18;;
53961;SDS011;39868;53.398;6.564;2022-07-03T05:00:47;5.80;;;5.30;;
53961;SDS011;39868;53.398;6.564;2022-07-03T05:03:14;5.57;;;5.13;;
53961;SDS011;39868;53.398;6.564;2022-07-03T05:05:42;5.32;;;4.82;;
53961;SDS011;39868;53.398;6.564;2022-07-03T05:08:09;4.70;;;4.25;;
53961;SDS011;39868;53.398;6.564;2022-07-03T05:10:36;5.63;;;5.10;;
53961;SDS011;39868;53.398;6.564;2022-07-03T05:13:04;5.93;;;5.25;;
53961;SDS011;39868;53.398;6.564;2022-07-03T05:15:31;6.25;;;5.25;;
53961;SDS011;39868;53.398;6.564;2022-07-03T05:18:04;4.95;;;4.55;;
53961;SDS011;39868;53.398;6.564;2022-07-03T05:20:32;5.07;;;4.35;;
53961;SDS011;39868;53.398;6.564;2022-07-03T05:23:00;4.97;;;4.50;;
53961;SDS011;39868;53.398;6.564;2022-07-03T05:25:29;5.55;;;4.85;;
53961;SDS011;39868;53.398;6.564;2022-07-03T05:27:57;4.80;;;4.40;;
53961;SDS011;39868;53.398;6.564;2022-07-03T05:30:25;4.82;;;4.22;;
53961;SDS011;39868;53.398;6.564;2022-07-03T05:32:53;4.18;;;3.78;;
53961;SDS011;39868;53.398;6.564;2022-07-03T05:35:21;3.90;;;3.60;;
53961;SDS011;39868;53.398;6.564;2022-07-03T05:37:49;4.50;;;3.63;;
53961;SDS011;39868;53.398;6.564;2022-07-03T05:40:17;4.00;;;3.70;;
53961;SDS011;39868;53.398;6.564;2022-07-03T05:42:44;4.18;;;3.78;;
53961;SDS011;39868;53.398;6.564;2022-07-03T05:45:12;6.28;;;4.22;;
53961;SDS011;39868;53.398;6.564;2022-07-03T05:47:39;4.13;;;3.80;;
53961;SDS011;39868;53.398;6.564;2022-07-03T05:50:07;3.83;;;3.53;;
53961;SDS011;39868;53.398;6.564;2022-07-03T05:52:35;5.30;;;4.05;;
53961;SDS011;39868;53.398;6.564;2022-07-03T05:55:02;4.63;;;3.85;;
53961;SDS011;39868;53.398;6.564;2022-07-03T05:57:31;4.13;;;3.75;;
53961;SDS011;39868;53.398;6.564;2022-07-03T05:59:59;4.78;;;3.85;;
53961;SDS011;39868;53.398;6.564;2022-07-03T06:02:28;4.25;;;3.85;;
53961;SDS011;39868;53.398;6.564;2022-07-03T06:04:55;4.18;;;3.67;;
53961;SDS011;39868;53.398;6.564;2022-07-03T06:07:22;4.47;;;4.07;;
53961;SDS011;39868;53.398;6.564;2022-07-03T06:09:50;5.22;;;3.90;;
53961;SDS011;39868;53.398;6.564;2022-07-03T06:12:17;4.00;;;3.50;;
53961;SDS011;39868;53.398;6.564;2022-07-03T06:14:44;3.90;;;3.60;;
53961;SDS011;39868;53.398;6.564;2022-07-03T06:17:12;4.82;;;3.97;;
53961;SDS011;39868;53.398;6.564;2022-07-03T06:19:39;4.25;;;3.75;;
53961;SDS011;39868;53.398;6.564;2022-07-03T06:22:07;3.80;;;3.50;;
53961;SDS011;39868;53.398;6.564;2022-07-03T06:24:34;5.22;;;3.38;;
53961;SDS011;39868;53.398;6.564;2022-07-03T06:27:02;4.43;;;3.53;;
53961;SDS011;39868;53.398;6.564;2022-07-03T06:29:30;4.50;;;3.15;;
53961;SDS011;39868;53.398;6.564;2022-07-03T06:31:58;4.38;;;3.42;;
53961;SDS011;39868;53.398;6.564;2022-07-03T06:34:26;3.25;;;2.83;;
53961;SDS011;39868;53.398;6.564;2022-07-03T06:36:54;5.70;;;3.38;;
53961;SDS011;39868;53.398;6.564;2022-07-03T06:39:21;4.00;;;3.60;;
53961;SDS011;39868;53.398;6.564;2022-07-03T06:41:49;3.28;;;3.08;;
53961;SDS011;39868;53.398;6.564;2022-07-03T06:44:16;3.40;;;3.10;;
53961;SDS011;39868;53.398;6.564;2022-07-03T06:46:43;3.20;;;2.90;;
53961;SDS011;39868;53.398;6.564;2022-07-03T06:49:11;3.15;;;2.95;;
53961;SDS011;39868;53.398;6.564;2022-07-03T06:51:38;4.20;;;2.92;;
53961;SDS011;39868;53.398;6.564;2022-07-03T06:54:06;3.30;;;3.00;;
53961;SDS011;39868;53.398;6.564;2022-07-03T06:56:33;3.35;;;3.10;;
53961;SDS011;39868;53.398;6.564;2022-07-03T06:59:01;3.40;;;3.20;;
53961;SDS011;39868;53.398;6.564;2022-07-03T07:01:28;3.35;;;3.08;;
53961;SDS011;39868;53.398;6.564;2022-07-03T07:03:56;2.92;;;2.72;;
53961;SDS011;39868;53.398;6.564;2022-07-03T07:06:24;3.03;;;2.80;;
53961;SDS011;39868;53.398;6.564;2022-07-03T07:08:51;2.83;;;2.63;;
53961;SDS011;39868;53.398;6.564;2022-07-03T07:11:19;3.13;;;2.90;;
53961;SDS011;39868;53.398;6.564;2022-07-03T07:13:46;4.13;;;2.83;;
53961;SDS011;39868;53.398;6.564;2022-07-03T07:16:14;3.15;;;2.63;;
53961;SDS011;39868;53.398;6.564;2022-07-03T07:18:42;3.30;;;3.00;;
53961;SDS011;39868;53.398;6.564;2022-07-03T07:21:10;6.32;;;2.90;;
53961;SDS011;39868;53.398;6.564;2022-07-03T07:23:37;3.05;;;2.85;;
53961;SDS011;39868;53.398;6.564;2022-07-03T07:26:05;3.55;;;3.25;;
53961;SDS011;39868;53.398;6.564;2022-07-03T07:28:32;3.55;;;3.25;;
53961;SDS011;39868;53.398;6.564;2022-07-03T07:31:02;4.13;;;3.40;;
53961;SDS011;39868;53.398;6.564;2022-07-03T07:33:29;3.40;;;3.20;;
53961;SDS011;39868;53.398;6.564;2022-07-03T07:35:57;3.75;;;3.45;;
53961;SDS011;39868;53.398;6.564;2022-07-03T07:38:24;3.28;;;3.05;;
53961;SDS011;39868;53.398;6.564;2022-07-03T07:40:51;3.85;;;3.55;;
53961;SDS011;39868;53.398;6.564;2022-07-03T07:43:19;4.90;;;3.00;;
53961;SDS011;39868;53.398;6.564;2022-07-03T07:45:46;3.20;;;2.95;;
53961;SDS011;39868;53.398;6.564;2022-07-03T07:48:17;2.85;;;2.65;;
53961;SDS011;39868;53.398;6.564;2022-07-03T07:50:45;7.32;;;2.97;;
53961;SDS011;39868;53.398;6.564;2022-07-03T07:53:12;3.10;;;2.90;;
53961;SDS011;39868;53.398;6.564;2022-07-03T07:55:39;3.83;;;3.00;;
53961;SDS011;39868;53.398;6.564;2022-07-03T07:58:07;3.33;;;3.03;;
53961;SDS011;39868;53.398;6.564;2022-07-03T08:00:35;4.47;;;2.80;;
53961;SDS011;39868;53.398;6.564;2022-07-03T08:03:03;3.20;;;2.92;;
53961;SDS011;39868;53.398;6.564;2022-07-03T08:05:49;3.40;;;3.10;;
53961;SDS011;39868;53.398;6.564;2022-07-03T08:08:17;3.42;;;3.22;;
53961;SDS011;39868;53.398;6.564;2022-07-03T08:10:45;3.80;;;3.00;;
53961;SDS011;39868;53.398;6.564;2022-07-03T08:13:14;3.25;;;3.05;;
53961;SDS011;39868;53.398;6.564;2022-07-03T08:15:43;5.72;;;2.92;;
53961;SDS011;39868;53.398;6.564;2022-07-03T08:18:11;3.42;;;3.10;;
53961;SDS011;39868;53.398;6.564;2022-07-03T08:20:38;3.25;;;3.05;;
53961;SDS011;39868;53.398;6.564;2022-07-03T08:23:06;3.28;;;3.08;;
53961;SDS011;39868;53.398;6.564;2022-07-03T08:25:33;2.90;;;2.70;;
53961;SDS011;39868;53.398;6.564;2022-07-03T08:28:00;3.08;;;2.90;;
53961;SDS011;39868;53.398;6.564;2022-07-03T08:30:28;3.30;;;3.00;;
53961;SDS011;39868;53.398;6.564;2022-07-03T08:32:56;3.30;;;3.00;;
53961;SDS011;39868;53.398;6.564;2022-07-03T08:35:25;3.20;;;2.90;;
53961;SDS011;39868;53.398;6.564;2022-07-03T08:37:52;3.25;;;3.05;;
53961;SDS011;39868;53.398;6.564;2022-07-03T08:40:20;3.22;;;3.03;;
53961;SDS011;39868;53.398;6.564;2022-07-03T08:42:55;3.40;;;3.10;;
53961;SDS011;39868;53.398;6.564;2022-07-03T08:45:25;3.38;;;3.17;;
53961;SDS011;39868;53.398;6.564;2022-07-03T08:47:53;3.75;;;3.20;;
53961;SDS011;39868;53.398;6.564;2022-07-03T08:50:21;3.35;;;3.15;;
53961;SDS011;39868;53.398;6.564;2022-07-03T08:52:49;3.72;;;3.22;;
53961;SDS011;39868;53.398;6.564;2022-07-03T08:55:18;3.55;;;3.25;;
53961;SDS011;39868;53.398;6.564;2022-07-03T08:57:46;3.30;;;3.10;;
53961;SDS011;39868;53.398;6.564;2022-07-03T09:00:16;3.10;;;2.90;;
53961;SDS011;39868;53.398;6.564;2022-07-03T09:02:45;3.22;;;3.03;;
53961;SDS011;39868;53.398;6.564;2022-07-03T09:05:15;3.35;;;3.15;;
53961;SDS011;39868;53.398;6.564;2022-07-03T09:07:44;2.92;;;2.80;;
53961;SDS011;39868;53.398;6.564;2022-07-03T09:10:14;2.97;;;2.80;;
53961;SDS011;39868;53.398;6.564;2022-07-03T09:12:44;3.70;;;3.38;;
53961;SDS011;39868;53.398;6.564;2022-07-03T09:15:12;3.22;;;3.08;;
53961;SDS011;39868;53.398;6.564;2022-07-03T09:17:40;3.63;;;3.33;;
53961;SDS011;39868;53.398;6.564;2022-07-03T09:20:34;3.22;;;3.03;;
53961;SDS011;39868;53.398;6.564;2022-07-03T09:23:10;3.17;;;2.90;;
53961;SDS011;39868;53.398;6.564;2022-07-03T09:31:28;3.08;;;2.97;;
53961;SDS011;39868;53.398;6.564;2022-07-03T09:39:28;3.10;;;2.95;;
53961;SDS011;39868;53.398;6.564;2022-07-03T09:42:03;3.20;;;3.00;;
53961;SDS011;39868;53.398;6.564;2022-07-03T09:44:33;2.90;;;2.70;;
53961;SDS011;39868;53.398;6.564;2022-07-03T09:47:15;2.70;;;2.60;;
53961;SDS011;39868;53.398;6.564;2022-07-03T10:00:20;2.45;;;2.35;;
53961;SDS011;39868;53.398;6.564;2022-07-03T10:03:04;3.17;;;2.97;;
53961;SDS011;39868;53.398;6.564;2022-07-03T10:05:39;2.88;;;2.70;;
53961;SDS011;39868;53.398;6.564;2022-07-03T10:08:09;3.00;;;2.80;;
53961;SDS011;39868;53.398;6.564;2022-07-03T10:10:38;3.00;;;2.80;;
53961;SDS011;39868;53.398;6.564;2022-07-03T10:13:09;3.35;;;3.15;;
53961;SDS011;39868;53.398;6.564;2022-07-03T10:15:37;5.57;;;3.35;;
53961;SDS011;39868;53.398;6.564;2022-07-03T10:18:07;5.88;;;3.42;;
53961;SDS011;39868;53.398;6.564;2022-07-03T10:23:14;5.00;;;3.80;;
53961;SDS011;39868;53.398;6.564;2022-07-03T10:25:43;3.60;;;3.40;;
53961;SDS011;39868;53.398;6.564;2022-07-03T10:28:12;3.72;;;3.22;;
53961;SDS011;39868;53.398;6.564;2022-07-03T10:30:40;7.45;;;3.65;;
53961;SDS011;39868;53.398;6.564;2022-07-03T10:33:10;4.32;;;3.33;;
53961;SDS011;39868;53.398;6.564;2022-07-03T10:35:39;3.22;;;3.03;;
53961;SDS011;39868;53.398;6.564;2022-07-03T10:41:07;5.03;;;3.40;;
53961;SDS011;39868;53.398;6.564;2022-07-03T10:44:00;4.85;;;3.60;;
53961;SDS011;39868;53.398;6.564;2022-07-03T10:46:47;3.80;;;3.40;;
53961;SDS011;39868;53.398;6.564;2022-07-03T10:49:19;4.72;;;3.40;;
53961;SDS011;39868;53.398;6.564;2022-07-03T11:05:10;7.72;;;4.32;;
53961;SDS011;39868;53.398;6.564;2022-07-03T11:08:23;4.47;;;3.60;;
53961;SDS011;39868;53.398;6.564;2022-07-03T11:10:32;6.20;;;3.80;;
53961;SDS011;39868;53.398;6.564;2022-07-03T11:15:39;4.13;;;3.65;;
53961;SDS011;39868;53.398;6.564;2022-07-03T11:18:09;7.35;;;3.42;;
53961;SDS011;39868;53.398;6.564;2022-07-03T11:25:41;4.00;;;3.60;;
53961;SDS011;39868;53.398;6.564;2022-07-03T11:33:45;8.63;;;3.90;;
53961;SDS011;39868;53.398;6.564;2022-07-03T11:41:25;4.20;;;3.88;;
53961;SDS011;39868;53.398;6.564;2022-07-03T11:43:58;3.83;;;3.53;;
53961;SDS011;39868;53.398;6.564;2022-07-03T11:46:32;6.78;;;3.70;;
53961;SDS011;39868;53.398;6.564;2022-07-03T11:49:21;4.40;;;3.53;;
53961;SDS011;39868;53.398;6.564;2022-07-03T11:54:33;5.78;;;3.83;;
53961;SDS011;39868;53.398;6.564;2022-07-03T11:57:16;3.60;;;3.30;;
53961;SDS011;39868;53.398;6.564;2022-07-03T11:59:44;3.60;;;3.40;;
53961;SDS011;39868;53.398;6.564;2022-07-03T12:02:11;4.40;;;3.63;;
53961;SDS011;39868;53.398;6.564;2022-07-03T12:04:39;4.22;;;3.83;;
53961;SDS011;39868;53.398;6.564;2022-07-03T12:07:08;6.93;;;3.90;;
53961;SDS011;39868;53.398;6.564;2022-07-03T12:09:36;4.25;;;3.80;;
53961;SDS011;39868;53.398;6.564;2022-07-03T12:14:57;4.65;;;3.70;;
53961;SDS011;39868;53.398;6.564;2022-07-03T12:17:24;4.70;;;3.42;;
53961;SDS011;39868;53.398;6.564;2022-07-03T12:19:56;4.78;;;3.33;;
53961;SDS011;39868;53.398;6.564;2022-07-03T12:22:30;3.45;;;3.10;;
53961;SDS011;39868;53.398;6.564;2022-07-03T12:30:05;3.42;;;3.13;;
53961;SDS011;39868;53.398;6.564;2022-07-03T12:32:34;5.80;;;3.20;;
53961;SDS011;39868;53.398;6.564;2022-07-03T12:35:03;3.35;;;3.08;;
53961;SDS011;39868;53.398;6.564;2022-07-03T12:37:34;3.85;;;3.20;;
53961;SDS011;39868;53.398;6.564;2022-07-03T12:42:41;3.40;;;3.10;;
53961;SDS011;39868;53.398;6.564;2022-07-03T12:45:13;5.45;;;3.50;;
53961;SDS011;39868;53.398;6.564;2022-07-03T12:47:43;3.40;;;3.10;;
53961;SDS011;39868;53.398;6.564;2022-07-03T12:50:11;3.63;;;3.33;;
53961;SDS011;39868;53.398;6.564;2022-07-03T12:55:36;3.55;;;3.35;;
53961;SDS011;39868;53.398;6.564;2022-07-03T12:58:12;3.58;;;3.28;;
53961;SDS011;39868;53.398;6.564;2022-07-03T13:01:02;4.30;;;3.15;;
53961;SDS011;39868;53.398;6.564;2022-07-03T13:03:30;3.50;;;3.20;;
53961;SDS011;39868;53.398;6.564;2022-07-03T13:06:13;3.45;;;3.10;;
53961;SDS011;39868;53.398;6.564;2022-07-03T13:11:41;3.63;;;3.30;;
53961;SDS011;39868;53.398;6.564;2022-07-03T13:14:13;3.67;;;3.38;;
53961;SDS011;39868;53.398;6.564;2022-07-03T13:16:45;3.90;;;3.60;;
53961;SDS011;39868;53.398;6.564;2022-07-03T13:19:15;3.60;;;3.40;;
53961;SDS011;39868;53.398;6.564;2022-07-03T13:21:44;3.78;;;3.47;;
53961;SDS011;39868;53.398;6.564;2022-07-03T13:24:14;3.80;;;3.50;;
53961;SDS011;39868;53.398;6.564;2022-07-03T13:26:42;3.85;;;3.60;;
53961;SDS011;39868;53.398;6.564;2022-07-03T13:29:13;3.90;;;3.63;;
53961;SDS011;39868;53.398;6.564;2022-07-03T13:31:41;3.70;;;3.50;;
53961;SDS011;39868;53.398;6.564;2022-07-03T13:34:09;4.20;;;3.47;;
53961;SDS011;39868;53.398;6.564;2022-07-03T13:36:36;3.35;;;3.05;;
53961;SDS011;39868;53.398;6.564;2022-07-03T13:39:04;3.33;;;3.10;;
53961;SDS011;39868;53.398;6.564;2022-07-03T13:41:31;3.38;;;3.03;;
53961;SDS011;39868;53.398;6.564;2022-07-03T13:43:59;3.85;;;3.22;;
53961;SDS011;39868;53.398;6.564;2022-07-03T13:46:26;3.40;;;3.20;;
53961;SDS011;39868;53.398;6.564;2022-07-03T13:48:53;4.25;;;2.97;;
53961;SDS011;39868;53.398;6.564;2022-07-03T13:51:21;3.42;;;3.20;;
53961;SDS011;39868;53.398;6.564;2022-07-03T13:53:48;3.33;;;3.13;;
53961;SDS011;39868;53.398;6.564;2022-07-03T13:56:16;4.07;;;3.78;;
53961;SDS011;39868;53.398;6.564;2022-07-03T13:58:44;3.92;;;3.13;;
53961;SDS011;39868;53.398;6.564;2022-07-03T14:01:17;3.45;;;3.20;;
53961;SDS011;39868;53.398;6.564;2022-07-03T14:03:47;3.22;;;3.03;;
53961;SDS011;39868;53.398;6.564;2022-07-03T14:06:15;3.42;;;3.22;;
53961;SDS011;39868;53.398;6.564;2022-07-03T14:08:42;3.30;;;3.10;;
53961;SDS011;39868;53.398;6.564;2022-07-03T14:11:10;3.47;;;3.17;;
53961;SDS011;39868;53.398;6.564;2022-07-03T14:13:37;3.30;;;3.05;;
53961;SDS011;39868;53.398;6.564;2022-07-03T14:16:05;3.40;;;3.10;;
53961;SDS011;39868;53.398;6.564;2022-07-03T14:18:32;3.20;;;3.00;;
53961;SDS011;39868;53.398;6.564;2022-07-03T14:21:06;3.42;;;3.10;;
53961;SDS011;39868;53.398;6.564;2022-07-03T14:23:33;4.90;;;2.90;;
53961;SDS011;39868;53.398;6.564;2022-07-03T14:26:03;3.20;;;2.95;;
53961;SDS011;39868;53.398;6.564;2022-07-03T14:28:31;3.25;;;2.90;;
53961;SDS011;39868;53.398;6.564;2022-07-03T14:31:24;3.50;;;3.30;;
53961;SDS011;39868;53.398;6.564;2022-07-03T14:33:52;3.70;;;3.40;;
53961;SDS011;39868;53.398;6.564;2022-07-03T14:36:25;3.75;;;3.45;;
53961;SDS011;39868;53.398;6.564;2022-07-03T14:39:10;3.60;;;3.30;;
53961;SDS011;39868;53.398;6.564;2022-07-03T14:41:46;3.30;;;3.10;;
53961;SDS011;39868;53.398;6.564;2022-07-03T14:44:20;4.95;;;3.30;;
53961;SDS011;39868;53.398;6.564;2022-07-03T14:46:59;3.38;;;3.17;;
53961;SDS011;39868;53.398;6.564;2022-07-03T14:49:35;3.58;;;3.30;;
53961;SDS011;39868;53.398;6.564;2022-07-03T14:52:08;3.20;;;2.90;;
53961;SDS011;39868;53.398;6.564;2022-07-03T14:54:35;5.55;;;3.15;;
53961;SDS011;39868;53.398;6.564;2022-07-03T15:05:16;2.10;;;1.63;;
53961;SDS011;39868;53.398;6.564;2022-07-03T15:10:24;2.70;;;2.50;;
53961;SDS011;39868;53.398;6.564;2022-07-03T15:12:52;3.25;;;3.05;;
53961;SDS011;39868;53.398;6.564;2022-07-03T15:15:20;2.30;;;2.10;;
53961;SDS011;39868;53.398;6.564;2022-07-03T15:17:51;2.85;;;2.65;;
53961;SDS011;39868;53.398;6.564;2022-07-03T15:20:19;2.78;;;2.58;;
53961;SDS011;39868;53.398;6.564;2022-07-03T15:22:48;3.20;;;2.90;;
53961;SDS011;39868;53.398;6.564;2022-07-03T15:25:18;2.83;;;2.42;;
53961;SDS011;39868;53.398;6.564;2022-07-03T15:27:50;2.05;;;1.13;;
53961;SDS011;39868;53.398;6.564;2022-07-03T15:32:48;2.22;;;1.65;;
53961;SDS011;39868;53.398;6.564;2022-07-03T15:35:18;3.10;;;2.78;;
53961;SDS011;39868;53.398;6.564;2022-07-03T15:37:49;2.55;;;2.38;;
53961;SDS011;39868;53.398;6.564;2022-07-03T15:40:55;3.20;;;2.90;;
53961;SDS011;39868;53.398;6.564;2022-07-03T15:46:39;3.28;;;3.00;;
53961;SDS011;39868;53.398;6.564;2022-07-03T15:49:29;3.47;;;2.97;;
53961;SDS011;39868;53.398;6.564;2022-07-03T15:52:10;3.67;;;2.87;;
53961;SDS011;39868;53.398;6.564;2022-07-03T16:00:07;3.40;;;2.40;;
53961;SDS011;39868;53.398;6.564;2022-07-03T16:02:40;2.72;;;2.53;;
53961;SDS011;39868;53.398;6.564;2022-07-03T16:05:10;5.32;;;2.80;;
53961;SDS011;39868;53.398;6.564;2022-07-03T16:07:42;3.53;;;2.50;;
53961;SDS011;39868;53.398;6.564;2022-07-03T16:10:11;2.80;;;2.60;;
53961;SDS011;39868;53.398;6.564;2022-07-03T16:12:39;3.38;;;2.67;;
53961;SDS011;39868;53.398;6.564;2022-07-03T16:15:09;2.50;;;2.30;;
53961;SDS011;39868;53.398;6.564;2022-07-03T16:17:36;3.08;;;2.53;;
53961;SDS011;39868;53.398;6.564;2022-07-03T16:20:05;4.32;;;2.72;;
53961;SDS011;39868;53.398;6.564;2022-07-03T16:22:34;3.25;;;2.30;;
53961;SDS011;39868;53.398;6.564;2022-07-03T16:25:03;2.85;;;2.60;;
53961;SDS011;39868;53.398;6.564;2022-07-03T16:27:32;2.92;;;2.72;;
53961;SDS011;39868;53.398;6.564;2022-07-03T16:30:03;2.50;;;2.30;;
53961;SDS011;39868;53.398;6.564;2022-07-03T16:32:37;2.28;;;2.17;;
53961;SDS011;39868;53.398;6.564;2022-07-03T16:35:07;2.85;;;2.20;;
53961;SDS011;39868;53.398;6.564;2022-07-03T16:37:48;2.50;;;2.30;;
53961;SDS011;39868;53.398;6.564;2022-07-03T16:40:25;2.60;;;2.40;;
53961;SDS011;39868;53.398;6.564;2022-07-03T16:42:53;2.35;;;2.15;;
53961;SDS011;39868;53.398;6.564;2022-07-03T16:45:26;2.87;;;2.67;;
53961;SDS011;39868;53.398;6.564;2022-07-03T16:47:56;2.50;;;2.22;;
53961;SDS011;39868;53.398;6.564;2022-07-03T16:50:34;3.97;;;2.55;;
53961;SDS011;39868;53.398;6.564;2022-07-03T16:53:03;2.63;;;2.42;;
53961;SDS011;39868;53.398;6.564;2022-07-03T16:55:31;2.72;;;2.53;;
53961;SDS011;39868;53.398;6.564;2022-07-03T16:58:00;5.55;;;2.40;;
53961;SDS011;39868;53.398;6.564;2022-07-03T17:00:29;2.78;;;2.53;;
53961;SDS011;39868;53.398;6.564;2022-07-03T17:02:59;2.60;;;2.40;;
53961;SDS011;39868;53.398;6.564;2022-07-03T17:05:27;3.25;;;2.63;;
53961;SDS011;39868;53.398;6.564;2022-07-03T17:07:55;3.17;;;2.60;;
53961;SDS011;39868;53.398;6.564;2022-07-03T17:10:28;2.60;;;2.40;;
53961;SDS011;39868;53.398;6.564;2022-07-03T17:12:58;2.60;;;2.40;;
53961;SDS011;39868;53.398;6.564;2022-07-03T17:15:28;3.42;;;2.60;;
53961;SDS011;39868;53.398;6.564;2022-07-03T17:17:58;3.08;;;2.80;;
53961;SDS011;39868;53.398;6.564;2022-07-03T17:20:31;2.38;;;2.20;;
53961;SDS011;39868;53.398;6.564;2022-07-03T17:23:20;2.70;;;2.50;;
53961;SDS011;39868;53.398;6.564;2022-07-03T17:26:04;3.25;;;2.97;;
53961;SDS011;39868;53.398;6.564;2022-07-03T17:29:18;3.00;;;2.63;;
53961;SDS011;39868;53.398;6.564;2022-07-03T17:31:27;3.17;;;2.25;;